Time;durP1;ratioP1;P1;durP2;ratioP2;P2;SDS_P1;SDS_P2;PMS_P1;PMS_P2;Temp;Humidity;BMP_temperature;BMP_pressure;BME280_temperature;BME280_humidity;BME280_pressure;Samples;Min_cycle;Max_cycle;Signal;HPM_P1;HPM_P2
2022/04/10 00:00:58;;;;;;;;;16.00;16.00;;;;;9.48;49.80;101647.06;5016834;28;48286;-65
2022/04/10 00:03:24;;;;;;;;;10.00;9.00;;;;;9.48;49.06;101649.72;5018095;28;45410;-65
2022/04/10 00:05:52;;;;;;;;;15.67;13.00;;;;;9.47;48.88;101652.47;5018380;28;45361;-64
2022/04/10 00:08:17;;;;;;;;;11.00;10.00;;;;;9.23;49.27;101602.94;5018071;28;45491;-65
2022/04/10 00:10:43;;;;;;;;;11.00;11.00;;;;;9.51;49.31;101648.63;5017743;28;45504;-63
2022/04/10 00:13:08;;;;;;;;;11.67;9.00;;;;;9.41;48.93;101633.41;5016879;28;45869;-65
2022/04/10 00:15:34;;;;;;;;;10.00;8.67;;;;;9.42;49.32;101632.44;5016720;28;45473;-66
2022/04/10 00:17:59;;;;;;;;;14.00;14.00;;;;;9.43;49.19;101633.28;5014802;28;45691;-63
2022/04/10 00:20:25;;;;;;;;;11.67;11.33;;;;;9.48;49.20;101635.59;5017890;28;46108;-65
2022/04/10 00:22:51;;;;;;;;;12.67;12.67;;;;;9.47;49.79;101633.91;5017799;28;45413;-64
2022/04/10 00:25:18;;;;;;;;;14.33;10.33;;;;;9.46;49.26;101635.72;5018001;28;45559;-66
2022/04/10 00:27:44;;;;;;;;;13.00;13.00;;;;;9.43;49.04;101626.16;5016910;28;45396;-64
2022/04/10 00:30:12;;;;;;;;;11.00;10.00;;;;;9.42;49.39;101627.13;5017131;28;45562;-66
2022/04/10 00:32:38;;;;;;;;;12.33;10.67;;;;;9.33;49.45;101613.69;5017581;28;45323;-66
2022/04/10 00:35:08;;;;;;;;;15.67;15.67;;;;;9.33;49.65;101617.19;5017754;28;45218;-66
2022/04/10 00:37:34;;;;;;;;;14.00;12.00;;;;;9.34;49.60;101618.88;5017515;28;45491;-65
2022/04/10 00:39:59;;;;;;;;;11.67;11.00;;;;;9.29;49.81;101612.22;5017350;28;45722;-65
2022/04/10 00:42:35;;;;;;;;;13.00;13.00;;;;;9.36;49.30;101621.41;5017784;28;45513;-64
2022/04/10 00:45:01;;;;;;;;;11.67;11.67;;;;;9.33;49.37;101627.81;5017733;28;45490;-65
2022/04/10 00:47:26;;;;;;;;;11.67;10.33;;;;;9.04;49.21;101581.38;5016297;28;45351;-66
2022/04/10 00:49:52;;;;;;;;;9.33;9.33;;;;;9.33;49.29;101627.81;5017490;28;46125;-65
2022/04/10 00:52:19;;;;;;;;;7.33;7.00;;;;;8.87;48.82;101550.81;5017628;28;45285;-65
2022/04/10 00:54:45;;;;;;;;;12.67;12.67;;;;;9.20;49.41;101611.09;5017670;28;45314;-65
2022/04/10 00:57:11;;;;;;;;;8.67;8.67;;;;;9.31;49.75;101624.41;5017625;28;45371;-65
2022/04/10 00:59:37;;;;;;;;;15.00;13.67;;;;;9.31;49.95;101632.38;5017138;28;45815;-64
2022/04/10 01:02:04;;;;;;;;;13.33;13.33;;;;;9.30;50.21;101633.34;5015851;28;45335;-65
2022/04/10 01:04:29;;;;;;;;;15.67;15.00;;;;;8.98;50.51;101580.00;5017424;28;45249;-65
2022/04/10 01:06:56;;;;;;;;;15.67;15.67;;;;;8.47;51.01;101506.00;5016250;28;45258;-65
2022/04/10 01:09:24;;;;;;;;;19.00;16.67;;;;;9.23;50.87;101637.44;5015530;28;47579;-66
2022/04/10 01:11:52;;;;;;;;;15.67;15.00;;;;;9.19;51.37;101624.47;5017070;28;45451;-65
2022/04/10 01:14:19;;;;;;;;;16.33;16.33;;;;;9.22;51.50;101630.44;5012416;28;45347;-65
2022/04/10 01:16:46;;;;;;;;;17.33;16.33;;;;;9.11;52.16;101625.06;5002832;28;45485;-66
2022/04/10 01:19:12;;;;;;;;;17.00;15.33;;;;;9.17;52.08;101631.69;5016814;28;47444;-65
2022/04/10 01:21:40;;;;;;;;;17.00;16.00;;;;;9.15;51.54;101629.16;5017057;28;45243;-64
2022/04/10 01:24:06;;;;;;;;;19.33;18.33;;;;;9.00;51.85;101606.41;5017142;28;45966;-65
2022/04/10 01:26:32;;;;;;;;;18.00;17.67;;;;;8.79;52.12;101579.66;5017001;28;45519;-64
2022/04/10 01:29:00;;;;;;;;;21.00;18.67;;;;;9.03;51.75;101614.19;5016815;28;46527;-64
2022/04/10 01:31:27;;;;;;;;;15.67;13.33;;;;;9.10;50.91;101636.63;4999035;28;45342;-66
2022/04/10 01:33:57;;;;;;;;;11.00;10.67;;;;;9.05;50.60;101620.22;5016845;28;45273;-66
2022/04/10 01:36:27;;;;;;;;;13.33;13.00;;;;;8.57;50.36;101553.88;5011792;28;45639;-65
2022/04/10 01:38:57;;;;;;;;;16.00;14.00;;;;;8.99;50.60;101623.28;5007841;28;47704;-66
2022/04/10 01:41:27;;;;;;;;;14.00;14.00;;;;;9.00;50.46;101627.63;5016672;28;45435;-65
2022/04/10 01:43:55;;;;;;;;;14.33;14.33;;;;;8.67;50.51;101568.16;5016733;28;45519;-65
2022/04/10 01:46:24;;;;;;;;;16.67;15.67;;;;;8.55;50.68;101545.19;5015646;28;45522;-65
2022/04/10 01:48:49;;;;;;;;;14.33;9.33;;;;;9.03;50.82;101625.63;5016714;28;45551;-66
2022/04/10 01:51:15;;;;;;;;;15.67;13.00;;;;;9.02;51.20;101613.31;5016390;28;45323;-65
2022/04/10 01:53:41;;;;;;;;;15.00;15.00;;;;;8.94;50.73;101599.75;5016813;28;45289;-65
2022/04/10 01:56:08;;;;;;;;;17.33;15.00;;;;;8.96;50.67;101610.25;5015213;28;45510;-65
2022/04/10 01:58:44;;;;;;;;;15.00;14.67;;;;;8.62;51.27;101558.88;5011370;28;47618;-65
2022/04/10 02:01:13;;;;;;;;;13.67;13.33;;;;;8.95;51.41;101611.22;5010503;28;45725;-65
2022/04/10 02:03:39;;;;;;;;;11.67;11.67;;;;;8.45;51.33;101526.47;5016082;28;45651;-65
2022/04/10 02:06:07;;;;;;;;;15.67;15.67;;;;;8.81;51.22;101589.22;5016758;28;45366;-65
2022/04/10 02:08:34;;;;;;;;;16.00;14.67;;;;;8.83;51.86;101592.59;5016465;28;45764;-66
2022/04/10 02:10:59;;;;;;;;;16.33;16.33;;;;;8.91;51.61;101615.06;5015960;28;45275;-65
2022/04/10 02:13:25;;;;;;;;;20.00;17.00;;;;;8.78;51.94;101594.72;5014949;28;45380;-65
2022/04/10 02:15:51;;;;;;;;;20.00;18.00;;;;;8.87;52.37;101613.59;5016583;28;45447;-66
2022/04/10 02:18:16;;;;;;;;;19.33;19.33;;;;;8.84;52.49;101615.50;5016201;28;46052;-64
2022/04/10 02:20:42;;;;;;;;;19.67;17.33;;;;;8.78;52.34;101600.03;5015943;28;45500;-66
2022/04/10 02:23:08;;;;;;;;;19.67;15.67;;;;;8.47;52.74;101552.88;5014796;28;45480;-65
2022/04/10 02:25:34;;;;;;;;;17.33;15.33;;;;;8.29;52.72;101527.66;5016083;28;45353;-65
2022/04/10 02:27:59;;;;;;;;;19.67;17.33;;;;;8.78;53.17;101605.34;5016026;28;46304;-65
2022/04/10 02:30:25;;;;;;;;;20.00;18.67;;;;;8.80;53.05;101621.13;5016099;28;45483;-65
2022/04/10 02:32:51;;;;;;;;;15.00;15.00;;;;;8.78;52.97;101615.09;5016365;28;45333;-63
2022/04/10 02:35:16;;;;;;;;;17.00;15.00;;;;;7.21;52.82;101370.31;5016555;28;45324;-64
2022/04/10 02:37:45;;;;;;;;;18.33;18.33;;;;;8.73;52.90;101615.44;5015704;28;46554;-65
2022/04/10 02:40:16;;;;;;;;;19.00;17.33;;;;;8.66;53.07;101608.88;5014602;28;46062;-63
2022/04/10 02:42:42;;;;;;;;;18.33;18.33;;;;;8.67;52.84;101620.34;5014920;28;45336;-64
2022/04/10 02:45:08;;;;;;;;;19.67;18.67;;;;;7.94;52.69;101491.28;5016409;28;45462;-64
2022/04/10 02:47:33;;;;;;;;;17.00;17.00;;;;;8.70;52.78;101625.41;5015327;28;46959;-64
2022/04/10 02:49:59;;;;;;;;;21.67;19.67;;;;;8.69;53.14;101627.22;5015978;28;45436;-64
2022/04/10 02:52:25;;;;;;;;;17.00;16.00;;;;;8.62;53.49;101612.72;5018150;28;45298;-64
2022/04/10 02:54:51;;;;;;;;;16.00;16.00;;;;;8.68;53.01;101625.53;5018095;28;45522;-65
2022/04/10 02:57:17;;;;;;;;;22.00;17.67;;;;;8.66;53.16;101622.16;5019125;28;45694;-65
2022/04/10 02:59:43;;;;;;;;;24.67;23.00;;;;;8.65;53.60;101628.41;5019200;28;45524;-65
2022/04/10 03:02:08;;;;;;;;;18.00;18.00;;;;;8.48;53.68;101596.94;5019197;28;45360;-65
2022/04/10 03:04:33;;;;;;;;;23.00;19.33;;;;;8.63;53.23;101622.38;5019465;28;45313;-64
2022/04/10 03:06:59;;;;;;;;;18.33;18.33;;;;;8.63;53.71;101630.31;5019102;28;45598;-63
2022/04/10 03:09:24;;;;;;;;;23.67;16.67;;;;;8.63;53.51;101630.31;5018705;28;45392;-65
2022/04/10 03:11:49;;;;;;;;;23.67;18.67;;;;;8.40;53.65;101584.22;5019368;28;45893;-64
2022/04/10 03:14:15;;;;;;;;;19.67;17.00;;;;;8.57;53.73;101622.78;5017967;28;45286;-65
2022/04/10 03:16:42;;;;;;;;;20.33;18.67;;;;;8.52;54.12;101619.63;5019062;28;45724;-65
2022/04/10 03:19:07;;;;;;;;;17.33;16.33;;;;;8.43;54.10;101605.25;5017942;28;45349;-65
2022/04/10 03:21:33;;;;;;;;;17.00;17.00;;;;;8.53;53.77;101632.75;5018467;28;45343;-64
2022/04/10 03:23:58;;;;;;;;;22.67;17.67;;;;;8.49;54.22;101628.66;5017961;28;45640;-64
2022/04/10 03:26:23;;;;;;;;;23.67;21.67;;;;;8.47;54.18;101622.59;5019044;28;46462;-64
2022/04/10 03:28:49;;;;;;;;;25.67;21.67;;;;;8.43;54.57;101626.44;5018772;28;45280;-65
2022/04/10 03:31:14;;;;;;;;;26.67;20.67;;;;;8.46;54.29;101631.53;5017537;28;45322;-65
2022/04/10 03:33:39;;;;;;;;;21.67;20.00;;;;;8.42;54.27;101634.50;5019056;28;45487;-65
2022/04/10 03:36:08;;;;;;;;;24.67;23.33;;;;;8.38;54.95;101623.25;5018414;28;47311;-66
2022/04/10 03:38:33;;;;;;;;;23.00;22.00;;;;;8.42;55.25;101639.81;5018669;28;45194;-64
2022/04/10 03:40:59;;;;;;;;;21.00;19.67;;;;;8.22;54.84;101607.56;5019258;28;45312;-64
2022/04/10 03:43:25;;;;;;;;;22.67;19.00;;;;;8.15;54.98;101601.00;5019304;28;45379;-65
2022/04/10 03:45:50;;;;;;;;;24.67;24.67;;;;;8.05;55.44;101589.34;5000924;28;47700;-64
2022/04/10 03:48:16;;;;;;;;;23.67;21.67;;;;;8.27;54.93;101633.72;5017655;28;45310;-65
2022/04/10 03:50:42;;;;;;;;;19.67;19.33;;;;;8.27;54.73;101624.94;5018675;28;45298;-64
2022/04/10 03:53:34;;;;;;;;;16.00;15.00;;;;;8.27;54.67;101630.22;5018803;28;45631;-65
2022/04/10 03:56:03;;;;;;;;;27.33;24.67;;;;;8.30;55.04;101636.16;5015947;28;46183;-64
2022/04/10 03:58:29;;;;;;;;;20.00;20.00;;;;;8.28;55.33;101631.94;5018607;28;45192;-64
2022/04/10 04:00:54;;;;;;;;;23.00;19.00;;;;;8.27;54.76;101635.53;5018693;28;45526;-65
2022/04/10 04:03:19;;;;;;;;;27.33;20.67;;;;;8.27;55.06;101633.72;5018221;28;45436;-63
2022/04/10 04:05:45;;;;;;;;;22.33;21.33;;;;;8.27;55.30;101635.53;5017201;28;46051;-66
2022/04/10 04:08:10;;;;;;;;;24.00;23.00;;;;;8.16;55.56;101621.22;5018720;28;45319;-65
2022/04/10 04:10:36;;;;;;;;;24.00;22.00;;;;;8.23;55.40;101627.81;5016856;28;45304;-65
2022/04/10 04:13:02;;;;;;;;;22.33;22.33;;;;;8.20;55.19;101624.50;5017543;28;45607;-64
2022/04/10 04:15:28;;;;;;;;;25.33;24.67;;;;;8.22;55.46;101622.63;5017846;28;45551;-65
2022/04/10 04:17:55;;;;;;;;;25.00;23.00;;;;;8.15;55.15;101616.03;5016997;28;45400;-64
2022/04/10 04:20:21;;;;;;;;;25.33;20.67;;;;;8.11;55.56;101615.41;5018465;28;45338;-65
2022/04/10 04:22:48;;;;;;;;;22.33;22.33;;;;;7.97;55.27;101593.47;5018170;28;45359;-65
2022/04/10 04:25:14;;;;;;;;;23.00;21.33;;;;;8.05;55.51;101610.53;5018049;28;45777;-65
2022/04/10 04:27:43;;;;;;;;;24.33;24.33;;;;;8.13;55.72;101634.69;5017976;28;45269;-64
2022/04/10 04:30:08;;;;;;;;;21.33;20.00;;;;;8.11;55.97;101631.28;5016876;28;45480;-65
2022/04/10 04:32:34;;;;;;;;;24.67;24.00;;;;;8.00;56.03;101628.53;5018203;28;45364;-65
2022/04/10 04:34:59;;;;;;;;;29.67;28.00;;;;;8.07;56.04;101643.06;5016659;28;48350;-64
2022/04/10 04:37:25;;;;;;;;;23.00;23.00;;;;;8.01;56.00;101637.31;5016737;28;45301;-65
2022/04/10 04:39:50;;;;;;;;;23.33;22.00;;;;;8.05;56.13;101647.63;5016424;28;45385;-65
2022/04/10 04:42:15;;;;;;;;;22.67;20.00;;;;;7.99;56.21;101634.78;5016407;28;45495;-65
2022/04/10 04:44:41;;;;;;;;;23.67;21.67;;;;;8.04;56.04;101650.38;5017886;28;46470;-65
2022/04/10 04:47:07;;;;;;;;;21.33;20.33;;;;;7.73;56.26;101599.50;5016367;28;45469;-65
2022/04/10 04:49:32;;;;;;;;;24.00;24.00;;;;;7.93;56.57;101654.59;5017340;28;45443;-65
2022/04/10 04:51:58;;;;;;;;;32.67;26.00;;;;;7.59;56.34;101599.59;5016651;28;45426;-69
2022/04/10 04:54:23;;;;;;;;;19.67;19.67;;;;;7.91;56.72;101671.53;5016312;28;48518;-66
2022/04/10 04:56:49;;;;;;;;;28.67;26.33;;;;;7.91;56.81;101669.75;5017495;28;45504;-64
2022/04/10 04:59:14;;;;;;;;;29.00;27.67;;;;;7.76;57.30;101656.69;5017349;28;45350;-67
2022/04/10 05:01:41;;;;;;;;;25.00;25.00;;;;;7.84;57.07;101675.56;5017911;28;45210;-64
2022/04/10 05:04:07;;;;;;;;;27.33;25.33;;;;;7.69;57.08;101643.03;5017220;28;47576;-65
2022/04/10 05:06:32;;;;;;;;;25.33;24.33;;;;;7.85;57.09;101671.97;5017205;28;45574;-65
2022/04/10 05:08:58;;;;;;;;;33.67;27.00;;;;;7.85;57.36;101677.25;5017284;28;45685;-66
2022/04/10 05:11:23;;;;;;;;;26.67;25.67;;;;;7.87;57.22;101675.34;5015767;28;45573;-64
2022/04/10 05:13:49;;;;;;;;;31.00;28.33;;;;;7.80;57.42;101669.59;5016174;28;46127;-65
2022/04/10 05:16:14;;;;;;;;;31.00;27.33;;;;;7.43;57.43;101596.31;5017134;28;45404;-65
2022/04/10 05:18:40;;;;;;;;;25.33;24.33;;;;;7.89;57.66;101678.75;5017502;28;45404;-65
2022/04/10 05:21:05;;;;;;;;;28.33;27.33;;;;;7.90;57.28;101680.44;5016134;28;45606;-65
2022/04/10 05:23:31;;;;;;;;;29.00;23.67;;;;;7.91;57.19;101682.13;5017206;28;45726;-64
2022/04/10 05:25:57;;;;;;;;;27.67;25.33;;;;;7.93;57.27;101674.94;5016935;28;45547;-64
2022/04/10 05:28:22;;;;;;;;;26.67;24.67;;;;;7.93;56.80;101678.44;5017160;28;45429;-65
2022/04/10 05:30:48;;;;;;;;;32.67;27.67;;;;;7.87;57.10;101675.34;5017212;28;45487;-63
2022/04/10 05:33:14;;;;;;;;;29.00;28.67;;;;;7.60;57.15;101625.09;5017223;28;46442;-64
2022/04/10 05:35:40;;;;;;;;;29.33;27.33;;;;;7.97;57.41;101687.00;5015612;28;45388;-65
2022/04/10 05:38:05;;;;;;;;;29.25;28.50;;;;;7.99;57.15;101693.03;5015519;28;45499;-65
2022/04/10 05:40:32;;;;;;;;;21.33;20.00;;;;;7.86;56.71;101678.94;5016857;28;45294;-66
2022/04/10 05:42:58;;;;;;;;;26.00;24.67;;;;;8.03;57.01;101702.50;5015802;28;46483;-65
2022/04/10 05:45:23;;;;;;;;;27.00;27.00;;;;;8.05;56.72;101703.25;5015405;28;45476;-64
2022/04/10 05:47:49;;;;;;;;;30.33;26.33;;;;;8.08;57.01;101700.38;5017064;28;45281;-65
2022/04/10 05:50:15;;;;;;;;;29.33;27.00;;;;;8.09;56.52;101707.38;5017054;28;45471;-66
2022/04/10 05:52:46;;;;;;;;;26.33;26.33;;;;;8.10;56.84;101709.06;5016367;28;46736;-66
2022/04/10 05:55:14;;;;;;;;;32.00;27.33;;;;;8.03;56.62;101702.50;5016507;28;45443;-64
2022/04/10 05:57:40;;;;;;;;;32.00;27.33;;;;;8.11;56.88;101708.09;5015285;28;45616;-66
2022/04/10 06:00:10;;;;;;;;;27.33;26.33;;;;;8.05;56.75;101700.59;5016352;28;45595;-64
2022/04/10 06:02:37;;;;;;;;;29.00;24.33;;;;;8.01;56.42;101698.22;5015777;28;46456;-65
2022/04/10 06:05:03;;;;;;;;;32.67;28.67;;;;;8.08;56.18;101695.06;5015917;28;45392;-63
2022/04/10 06:07:28;;;;;;;;;29.33;28.00;;;;;8.22;56.27;101702.94;5016773;28;45352;-64
2022/04/10 06:09:54;;;;;;;;;32.33;29.67;;;;;8.20;56.45;101696.03;5015457;28;45176;-65
2022/04/10 06:12:19;;;;;;;;;28.00;25.33;;;;;8.28;56.15;101706.97;5016371;28;46682;-65
2022/04/10 06:14:45;;;;;;;;;33.00;31.33;;;;;8.37;55.94;101716.94;5016372;28;45583;-65
2022/04/10 06:17:10;;;;;;;;;32.00;29.33;;;;;7.86;56.21;101626.00;5016535;28;45237;-65
2022/04/10 06:19:35;;;;;;;;;29.67;29.00;;;;;8.45;55.81;101719.06;5016690;28;45658;-66
2022/04/10 06:22:01;;;;;;;;;29.00;27.00;;;;;8.46;55.56;101713.66;5016547;28;45904;-67
2022/04/10 06:24:27;;;;;;;;;26.67;26.67;;;;;8.79;55.58;101702.47;5016517;28;45181;-66
2022/04/10 06:26:56;;;;;;;;;33.00;29.67;;;;;9.63;53.89;101730.88;5019554;28;45348;-65
2022/04/10 06:29:22;;;;;;;;;34.33;32.00;;;;;10.29;52.20;101712.63;5020054;28;45542;-64
2022/04/10 06:31:48;;;;;;;;;33.33;31.33;;;;;11.00;50.38;101715.88;5019212;28;46148;-64
2022/04/10 06:34:13;;;;;;;;;32.00;30.33;;;;;11.52;49.39;101715.16;5019584;28;45495;-66
2022/04/10 06:36:39;;;;;;;;;35.00;32.00;;;;;12.03;47.81;101720.69;5019239;28;45339;-66
2022/04/10 06:39:05;;;;;;;;;30.67;29.33;;;;;12.16;47.08;101648.50;5019919;28;45599;-65
2022/04/10 06:41:30;;;;;;;;;34.00;30.33;;;;;12.98;45.30;101710.59;5019398;28;47166;-67
2022/04/10 06:43:56;;;;;;;;;34.00;31.67;;;;;13.35;44.38;101696.66;5018105;28;46141;-66
2022/04/10 06:46:23;;;;;;;;;35.67;30.33;;;;;13.57;43.00;101672.34;5031249;28;45286;-65
2022/04/10 06:48:48;;;;;;;;;35.33;32.00;;;;;14.12;42.58;101691.28;5021301;28;45324;-64
2022/04/10 06:51:16;;;;;;;;;35.00;32.00;;;;;14.27;41.87;101660.44;5018862;28;45439;-65
2022/04/10 06:53:42;;;;;;;;;35.00;31.67;;;;;14.93;40.87;101704.97;5019291;28;45483;-65
2022/04/10 06:56:07;;;;;;;;;43.33;36.33;;;;;15.27;40.59;101686.47;5019429;28;45335;-66
2022/04/10 06:58:33;;;;;;;;;35.33;32.67;;;;;15.71;39.82;101695.44;5019568;28;45325;-65
2022/04/10 07:00:59;;;;;;;;;32.00;30.67;;;;;16.07;38.92;101690.88;5018639;28;46637;-65
2022/04/10 07:03:25;;;;;;;;;34.00;30.00;;;;;16.67;37.67;101706.22;5014026;28;45808;-66
2022/04/10 07:05:50;;;;;;;;;36.67;30.00;;;;;16.81;36.44;101661.78;5017901;28;45580;-66
2022/04/10 07:08:15;;;;;;;;;23.33;21.33;;;;;17.27;35.41;101696.19;5019163;28;45503;-66
2022/04/10 07:10:41;;;;;;;;;34.33;28.67;;;;;17.67;34.51;101708.00;5019249;28;45594;-65
2022/04/10 07:13:07;;;;;;;;;28.33;24.00;;;;;17.87;33.99;101685.19;5019154;28;45306;-66
2022/04/10 07:15:32;;;;;;;;;23.33;23.33;;;;;18.32;33.04;101705.31;5017606;28;45346;-69
2022/04/10 07:17:58;;;;;;;;;27.33;27.33;;;;;18.58;32.80;101704.22;5018645;28;45194;-65
2022/04/10 07:20:24;;;;;;;;;28.00;24.33;;;;;18.78;32.25;101698.31;5034221;28;45296;-67
2022/04/10 07:25:36;;;;;;;;;25.67;23.67;;;;;19.14;31.48;101671.69;5018962;28;45218;-68
2022/04/10 07:28:01;;;;;;;;;28.33;25.00;;;;;19.49;31.12;101699.13;5017477;28;45857;-66
2022/04/10 07:30:27;;;;;;;;;19.67;18.00;;;;;19.62;30.04;101696.69;5017153;28;47070;-67
2022/04/10 07:32:53;;;;;;;;;19.67;19.00;;;;;19.71;30.07;101698.31;5018367;28;45305;-66
2022/04/10 07:35:19;;;;;;;;;17.67;17.67;;;;;19.69;29.76;101704.91;5018921;28;45402;-65
2022/04/10 07:37:48;;;;;;;;;19.33;16.33;;;;;19.72;29.94;101704.53;5017727;28;45471;-68
2022/04/10 07:40:15;;;;;;;;;22.00;21.67;;;;;19.63;29.42;101690.28;5018760;28;47483;-66
2022/04/10 07:42:43;;;;;;;;;25.00;23.00;;;;;19.80;30.19;101714.41;5018507;28;45274;-67
2022/04/10 07:45:09;;;;;;;;;24.33;22.00;;;;;19.84;29.93;101704.97;5018857;28;45496;-68
2022/04/10 07:47:35;;;;;;;;;22.67;22.67;;;;;19.90;29.41;101715.84;5017166;28;45520;-68
2022/04/10 07:50:01;;;;;;;;;19.00;16.00;;;;;20.07;28.85;101711.16;5018438;28;45546;-66
2022/04/10 07:52:29;;;;;;;;;17.33;16.33;;;;;20.22;28.66;101717.44;5018584;28;45647;-67
2022/04/10 07:54:55;;;;;;;;;23.33;21.00;;;;;20.01;28.20;101711.88;5018591;28;45251;-66
2022/04/10 07:57:21;;;;;;;;;22.67;20.67;;;;;20.14;29.03;101712.09;5018570;28;45403;-66
2022/04/10 07:59:46;;;;;;;;;25.67;24.33;;;;;20.25;28.80;101713.53;5018007;28;45958;-66
2022/04/10 08:02:12;;;;;;;;;18.67;18.67;;;;;20.20;28.41;101708.66;5016963;28;45464;-67
2022/04/10 08:04:38;;;;;;;;;21.33;19.67;;;;;20.13;28.30;101709.59;5017210;28;45455;-67
2022/04/10 08:07:04;;;;;;;;;26.33;26.33;;;;;20.01;28.46;101701.06;5017709;28;45488;-66
2022/04/10 08:09:29;;;;;;;;;25.00;23.00;;;;;20.03;28.58;101696.34;5017817;28;46118;-67
2022/04/10 08:11:55;;;;;;;;;24.33;21.00;;;;;20.04;27.58;101684.53;5017715;28;45534;-68
2022/04/10 08:14:20;;;;;;;;;24.67;21.67;;;;;19.78;27.75;101654.41;5018325;28;45350;-66
2022/04/10 08:16:46;;;;;;;;;25.33;25.33;;;;;19.70;27.96;101676.91;5018450;28;45285;-66
2022/04/10 08:19:12;;;;;;;;;19.00;17.00;;;;;19.89;27.57;101708.78;5016552;28;47283;-66
2022/04/10 08:21:38;;;;;;;;;17.67;17.67;;;;;19.60;27.39;101698.72;5018060;28;45525;-66
2022/04/10 08:24:04;;;;;;;;;23.33;22.33;;;;;19.44;27.35;101682.63;5018226;28;45251;-68
2022/04/10 08:26:29;;;;;;;;;22.33;20.00;;;;;19.40;27.61;101714.50;5016578;28;45645;-66
2022/04/10 08:28:55;;;;;;;;;16.33;14.67;;;;;19.19;27.34;101681.09;5016541;28;48367;-67
2022/04/10 08:31:21;;;;;;;;;16.33;16.33;;;;;19.41;27.61;101682.97;5017650;28;45283;-66
2022/04/10 08:33:46;;;;;;;;;17.00;14.33;;;;;19.75;27.05;101707.72;5017793;28;45211;-67
2022/04/10 08:36:12;;;;;;;;;15.67;15.67;;;;;20.04;26.75;101711.53;5017588;28;45580;-66
2022/04/10 08:38:38;;;;;;;;;18.00;18.00;;;;;20.31;26.00;101713.63;5017507;28;45448;-66
2022/04/10 08:41:03;;;;;;;;;20.33;18.00;;;;;20.51;25.94;101713.13;5017385;28;45510;-66
2022/04/10 08:43:30;;;;;;;;;20.67;16.33;;;;;20.50;26.05;101703.34;5016158;28;45315;-66
2022/04/10 08:45:57;;;;;;;;;15.33;14.33;;;;;20.69;25.52;101713.59;5017504;28;45475;-65
2022/04/10 08:48:26;;;;;;;;;10.67;10.67;;;;;20.67;24.87;101707.53;5017447;28;45444;-66
2022/04/10 08:50:56;;;;;;;;;14.00;12.33;;;;;21.01;25.16;101706.09;5017218;28;45510;-67
2022/04/10 08:53:24;;;;;;;;;9.67;8.33;;;;;21.24;24.42;101704.13;5017428;28;45307;-65
2022/04/10 08:55:49;;;;;;;;;8.33;8.33;;;;;20.86;24.74;101606.94;5015574;28;45548;-67
2022/04/10 08:58:15;;;;;;;;;10.00;8.33;;;;;21.62;23.22;101722.81;5016080;28;46370;-66
2022/04/10 09:00:44;;;;;;;;;12.00;10.67;;;;;21.58;23.85;101664.72;5005981;28;45463;-66
2022/04/10 09:03:10;;;;;;;;;12.67;12.00;;;;;22.43;23.13;101708.78;5016258;28;45257;-66
2022/04/10 09:05:37;;;;;;;;;10.00;10.00;;;;;22.08;23.05;101623.94;5032524;28;45443;-68
2022/04/10 09:08:07;;;;;;;;;11.67;10.00;;;;;22.83;22.42;101705.47;5017419;28;46765;-66
2022/04/10 09:11:03;;;;;;;;;11.00;10.00;;;;;23.14;22.10;101710.41;5016843;28;45415;-66
2022/04/10 09:13:36;;;;;;;;;8.33;5.67;;;;;23.63;21.79;101704.72;5012807;28;45397;-67
2022/04/10 09:16:56;;;;;;;;;9.00;9.00;;;;;24.04;21.89;101703.69;4997667;28;45443;-69
2022/04/10 09:19:21;;;;;;;;;8.67;8.67;;;;;24.84;20.61;101689.75;5010275;28;45606;-67
2022/04/10 09:21:46;;;;;;;;;9.00;9.00;;;;;25.17;19.96;101654.25;5022981;28;45556;-67
2022/04/10 09:24:14;;;;;;;;;9.67;7.00;;;;;26.34;19.25;101707.22;5015904;28;45446;-67
2022/04/10 09:26:55;;;;;;;;;8.00;6.33;;;;;27.23;17.81;101692.16;5016820;28;45165;-66
2022/04/10 09:29:30;;;;;;;;;6.33;5.33;;;;;28.04;17.89;101690.69;5008232;28;46600;-66
2022/04/10 09:31:57;;;;;;;;;5.00;5.00;;;;;28.32;16.89;101691.91;4980375;28;45489;-67
2022/04/10 09:34:28;;;;;;;;;9.67;4.33;;;;;28.79;16.77;101698.97;4997620;28;45171;-68
2022/04/10 09:37:01;;;;;;;;;6.00;6.00;;;;;28.97;15.37;101694.41;4997282;28;45500;-68
2022/04/10 09:39:36;;;;;;;;;6.33;4.33;;;;;29.31;15.87;101707.16;5002312;28;46060;-67
2022/04/10 09:42:04;;;;;;;;;5.00;5.00;;;;;29.07;15.72;101639.88;5012881;28;46612;-65
2022/04/10 09:44:32;;;;;;;;;4.67;4.00;;;;;29.89;15.48;101706.00;5016576;28;45507;-66
2022/04/10 09:47:00;;;;;;;;;4.33;4.33;;;;;30.32;15.11;101695.44;5016555;28;45365;-68
2022/04/10 09:49:40;;;;;;;;;7.00;6.00;;;;;30.66;15.05;101657.78;5016067;28;46414;-65
2022/04/10 09:52:09;;;;;;;;;3.00;3.00;;;;;31.15;14.65;101697.91;5016564;28;45474;-64
2022/04/10 09:54:39;;;;;;;;;2.00;2.00;;;;;31.11;13.34;101680.28;5016641;28;45467;-71
2022/04/10 09:57:09;;;;;;;;;3.00;3.00;;;;;31.43;13.25;101693.25;5015991;28;45566;-66
2022/04/10 09:59:40;;;;;;;;;5.00;4.00;;;;;31.76;13.23;101689.47;5016437;28;45676;-67
2022/04/10 10:02:07;;;;;;;;;4.67;3.00;;;;;31.54;13.00;101667.53;5019748;28;45415;-67
2022/04/10 10:04:37;;;;;;;;;4.67;4.67;;;;;31.62;12.69;101683.53;5019861;28;45404;-67
2022/04/10 10:07:15;;;;;;;;;4.67;4.67;;;;;30.95;13.42;101651.00;5019356;28;45399;-68
2022/04/10 10:09:46;;;;;;;;;6.00;5.00;;;;;30.25;13.92;101640.78;5018614;28;48167;-66
2022/04/10 10:12:12;;;;;;;;;5.00;5.00;;;;;29.44;14.42;101684.09;5018454;28;45284;-68
2022/04/10 10:14:39;;;;;;;;;4.00;4.00;;;;;28.52;15.09;101672.38;5020097;28;45439;-67
2022/04/10 10:17:07;;;;;;;;;5.00;5.00;;;;;27.88;15.61;101685.94;5018187;28;45508;-68
2022/04/10 10:19:34;;;;;;;;;6.00;4.67;;;;;27.16;15.73;101682.38;5017549;28;45865;-68
2022/04/10 10:22:06;;;;;;;;;5.00;4.00;;;;;26.25;17.14;101654.03;5014778;28;45690;-66
2022/04/10 10:24:50;;;;;;;;;4.67;4.67;;;;;25.42;17.50;101670.63;5019741;28;45321;-67
2022/04/10 10:27:37;;;;;;;;;13.33;12.33;;;;;24.63;18.85;101676.44;5018043;28;45643;-66
2022/04/10 10:30:18;;;;;;;;;9.00;5.67;;;;;23.81;19.74;101664.19;5016549;28;47579;-67
2022/04/10 10:32:47;;;;;;;;;4.33;2.67;;;;;22.55;20.47;101584.38;4996826;28;45448;-73
2022/04/10 10:35:29;;;;;;;;;6.33;6.33;;;;;22.46;21.41;101666.88;4998785;28;45482;-69
2022/04/10 10:37:54;;;;;;;;;7.67;7.00;;;;;21.79;21.39;101664.69;4999372;28;45563;-68
2022/04/10 10:40:21;;;;;;;;;2.67;2.00;;;;;21.19;22.25;101644.31;5017999;28;46444;-68
2022/04/10 10:42:49;;;;;;;;;7.00;6.00;;;;;20.91;22.92;101658.56;5018392;28;45507;-67
2022/04/10 10:45:42;;;;;;;;;7.00;7.00;;;;;20.57;23.49;101669.13;5017941;28;45350;-66
2022/04/10 10:48:32;;;;;;;;;13.33;10.00;;;;;20.25;24.09;101664.91;5018681;28;45507;-66
2022/04/10 10:51:11;;;;;;;;;8.00;6.67;;;;;19.88;24.53;101663.09;5018182;28;45522;-67
2022/04/10 10:53:55;;;;;;;;;6.00;6.00;;;;;19.50;25.65;101663.03;5019209;28;45448;-66
2022/04/10 10:56:27;;;;;;;;;11.00;11.00;;;;;19.01;26.08;101660.63;5018808;28;45444;-66
2022/04/10 10:58:55;;;;;;;;;7.00;7.00;;;;;18.60;25.97;101651.03;5018772;28;45435;-66
2022/04/10 11:01:28;;;;;;;;;6.33;5.00;;;;;18.17;26.54;101661.25;5018147;28;47502;-68
2022/04/10 11:04:05;;;;;;;;;7.67;7.67;;;;;17.90;26.73;101641.81;5019253;28;45415;-65
2022/04/10 11:06:42;;;;;;;;;7.67;7.33;;;;;17.78;26.81;101645.84;5018587;28;45492;-70
2022/04/10 11:09:30;;;;;;;;;6.67;6.67;;;;;17.30;27.25;101576.75;5014329;28;45562;-66
2022/04/10 11:11:59;;;;;;;;;6.00;5.00;;;;;17.43;27.07;101647.00;5015866;28;45826;-66
2022/04/10 11:14:41;;;;;;;;;7.33;6.67;;;;;17.26;27.57;101640.75;5018805;28;45234;-66
2022/04/10 11:17:09;;;;;;;;;8.33;5.67;;;;;17.02;27.28;101643.41;5019059;28;45516;-65
2022/04/10 11:19:36;;;;;;;;;6.33;4.67;;;;;16.88;27.58;101630.59;5017979;28;45695;-67
2022/04/10 11:22:02;;;;;;;;;8.00;5.00;;;;;16.63;27.13;101611.69;5015649;28;48669;-70